Time;durP1;ratioP1;P1;durP2;ratioP2;P2;SDS_P1;SDS_P2;PMS_P1;PMS_P2;Temp;Humidity;BMP_temperature;BMP_pressure;BME280_temperature;BME280_humidity;BME280_pressure;Samples;Min_cycle;Max_cycle;Signal;HPM_P1;HPM_P2
2021/08/06 00:02:16;;;;;;;0.60;0.60;;;;;;;17.09;83.51;95947.13;5033074;28;21048;-67
2021/08/06 00:04:42;;;;;;;0.60;0.60;;;;;;;17.05;83.43;95948.78;5032749;28;20252;-67
2021/08/06 00:07:08;;;;;;;0.70;0.70;;;;;;;16.96;83.76;95951.28;5033089;28;20648;-66
2021/08/06 00:09:36;;;;;;;0.70;0.70;;;;;;;16.89;84.22;95953.47;5033999;28;20645;-67
2021/08/06 00:12:03;;;;;;;0.70;0.70;;;;;;;16.63;85.65;95952.25;5030794;28;20210;-67
2021/08/06 00:14:28;;;;;;;0.80;0.80;;;;;;;16.89;84.14;95950.84;5033570;28;20283;-67
2021/08/06 00:16:54;;;;;;;1.53;0.97;;;;;;;16.83;84.35;95948.56;5034096;28;20240;-67
2021/08/06 00:19:20;;;;;;;3.83;0.90;;;;;;;16.55;86.04;95943.06;5032219;28;20183;-66
2021/08/06 00:21:46;;;;;;;0.80;0.80;;;;;;;16.54;86.18;95938.06;5033848;28;20186;-67
2021/08/06 00:24:11;;;;;;;0.90;0.90;;;;;;;16.72;85.35;95945.25;5032817;28;20193;-65
2021/08/06 00:26:37;;;;;;;0.80;0.80;;;;;;;16.67;85.33;95939.25;5033042;28;20591;-65
2021/08/06 00:29:02;;;;;;;1.13;0.83;;;;;;;16.61;85.91;95947.25;5032081;28;20195;-69
2021/08/06 00:31:27;;;;;;;3.60;1.90;;;;;;;16.81;84.62;95942.75;5033654;28;20578;-65
2021/08/06 00:33:53;;;;;;;0.80;0.80;;;;;;;16.69;85.17;95937.09;5033525;28;20217;-66
2021/08/06 00:36:18;;;;;;;2.60;0.90;;;;;;;16.74;84.79;95934.38;5032592;28;20182;-66
2021/08/06 00:38:43;;;;;;;1.00;1.00;;;;;;;16.51;86.03;95931.47;5032811;28;20649;-66
2021/08/06 00:41:09;;;;;;;1.07;1.07;;;;;;;16.52;85.76;95927.78;5032655;28;20646;-67
2021/08/06 00:43:35;;;;;;;0.90;0.90;;;;;;;16.59;85.32;95930.09;5033427;28;20198;-66
2021/08/06 00:46:02;;;;;;;0.90;0.90;;;;;;;16.55;85.54;95929.06;5032602;28;20549;-68
2021/08/06 00:48:28;;;;;;;0.93;0.93;;;;;;;16.44;85.85;95917.81;5033395;28;20677;-66
2021/08/06 00:50:55;;;;;;;1.17;0.93;;;;;;;16.34;86.41;95919.81;5032546;28;20190;-66
2021/08/06 00:53:21;;;;;;;0.70;0.70;;;;;;;16.40;86.38;95916.03;5031211;28;20265;-66
2021/08/06 00:55:47;;;;;;;2.67;0.87;;;;;;;16.33;86.44;95921.66;5032485;28;20526;-66
2021/08/06 00:58:13;;;;;;;0.83;0.83;;;;;;;16.33;86.79;95923.53;5032381;28;20202;-66
2021/08/06 01:00:38;;;;;;;0.80;0.80;;;;;;;16.19;87.27;95921.56;5032920;28;20240;-66
2021/08/06 01:03:11;;;;;;;1.53;1.23;;;;;;;16.11;87.61;95927.47;5031646;28;20185;-67
2021/08/06 01:05:43;;;;;;;0.90;0.90;;;;;;;16.32;87.03;95919.31;5031347;28;20174;-66
2021/08/06 01:08:14;;;;;;;1.00;0.90;;;;;;;16.12;86.99;95921.13;5031273;28;20269;-66
2021/08/06 01:10:46;;;;;;;0.80;0.80;;;;;;;16.15;87.15;95917.16;5031181;28;20560;-66
2021/08/06 01:13:14;;;;;;;0.70;0.70;;;;;;;16.12;87.16;95918.47;5022934;28;20183;-66
2021/08/06 01:15:42;;;;;;;0.70;0.70;;;;;;;16.05;87.38;95917.28;5032494;28;20235;-66
2021/08/06 01:18:12;;;;;;;0.90;0.90;;;;;;;16.20;86.44;95911.78;5031753;28;20659;-66
2021/08/06 01:20:42;;;;;;;0.80;0.80;;;;;;;16.23;86.36;95917.28;5032866;28;20186;-66
2021/08/06 01:23:17;;;;;;;0.90;0.90;;;;;;;16.36;85.55;95920.31;5031796;28;20273;-66
2021/08/06 01:25:45;;;;;;;1.63;0.90;;;;;;;16.52;84.09;95916.41;5032667;28;20174;-67
2021/08/06 01:28:16;;;;;;;0.80;0.80;;;;;;;16.34;84.91;95917.94;5031590;28;20175;-67
2021/08/06 01:30:42;;;;;;;0.73;0.73;;;;;;;16.20;85.53;95917.09;5032378;28;20203;-67
2021/08/06 01:33:08;;;;;;;0.80;0.80;;;;;;;16.38;84.07;95913.69;5031542;28;20183;-66
2021/08/06 01:35:34;;;;;;;1.90;0.90;;;;;;;16.41;84.20;95907.03;5031842;28;20194;-68
2021/08/06 01:38:00;;;;;;;1.13;1.03;;;;;;;16.42;83.85;95903.31;5031089;28;20715;-67
2021/08/06 01:40:26;;;;;;;0.80;0.80;;;;;;;16.42;83.89;95913.91;5031455;28;20261;-66
2021/08/06 01:43:04;;;;;;;1.10;1.00;;;;;;;16.31;84.12;95907.94;5032096;28;20218;-66
2021/08/06 01:45:37;;;;;;;0.90;0.90;;;;;;;16.29;84.54;95902.16;5030991;28;20265;-66
2021/08/06 01:48:04;;;;;;;0.93;0.93;;;;;;;16.47;83.33;95905.88;5031143;28;20633;-69
2021/08/06 01:50:38;;;;;;;0.80;0.80;;;;;;;16.49;83.30;95899.25;5031509;28;20199;-66
2021/08/06 01:53:08;;;;;;;0.90;0.90;;;;;;;16.43;83.17;95899.59;5031518;28;20174;-68
2021/08/06 01:55:41;;;;;;;0.97;0.97;;;;;;;16.54;81.93;95906.34;5030923;28;20179;-66
2021/08/06 01:58:09;;;;;;;1.10;1.00;;;;;;;16.65;80.93;95902.50;5030144;28;20191;-66
2021/08/06 02:00:34;;;;;;;0.90;0.90;;;;;;;16.65;81.16;95907.78;5031542;28;20202;-66
2021/08/06 02:03:00;;;;;;;0.80;0.80;;;;;;;16.79;80.37;95899.91;5031760;28;20190;-65
2021/08/06 02:05:27;;;;;;;2.07;0.80;;;;;;;16.69;80.89;95908.00;5029890;28;20186;-66
2021/08/06 02:07:53;;;;;;;0.87;0.87;;;;;;;16.80;80.72;95904.13;5015071;28;20205;-65
2021/08/06 02:10:19;;;;;;;0.70;0.70;;;;;;;16.80;80.32;95893.53;5023714;28;20341;-66
2021/08/06 02:12:45;;;;;;;0.80;0.80;;;;;;;16.66;81.31;95892.72;5022861;28;20654;-66
2021/08/06 02:15:13;;;;;;;0.80;0.80;;;;;;;16.74;80.96;95892.03;5029928;28;20210;-66
2021/08/06 02:17:40;;;;;;;0.90;0.90;;;;;;;16.73;80.74;95898.41;5031635;28;20195;-65
2021/08/06 02:20:07;;;;;;;0.90;0.90;;;;;;;16.74;80.44;95892.03;5030437;28;20279;-68
2021/08/06 02:22:34;;;;;;;1.00;1.00;;;;;;;16.90;79.70;95885.44;5031745;28;20685;-65
2021/08/06 02:25:02;;;;;;;1.23;0.97;;;;;;;16.78;80.12;95893.81;5031503;28;20193;-66
2021/08/06 02:27:28;;;;;;;1.07;1.07;;;;;;;16.90;79.16;95893.38;5030486;28;20187;-66
2021/08/06 02:29:58;;;;;;;1.10;1.10;;;;;;;16.95;79.41;95888.00;5031193;28;20245;-66
2021/08/06 02:32:24;;;;;;;1.67;1.03;;;;;;;17.01;78.80;95894.81;5030440;28;20687;-66
2021/08/06 02:34:50;;;;;;;1.60;1.00;;;;;;;16.96;78.99;95886.94;5030717;28;20185;-65
2021/08/06 02:37:16;;;;;;;0.97;0.90;;;;;;;17.12;77.97;95887.47;5030253;28;20179;-66
2021/08/06 02:39:41;;;;;;;0.97;0.97;;;;;;;16.99;78.66;95884.53;5031163;28;20215;-67
2021/08/06 02:42:07;;;;;;;1.00;1.00;;;;;;;16.97;78.74;95877.94;5030251;28;20592;-68
2021/08/06 02:44:37;;;;;;;1.43;1.10;;;;;;;17.03;78.58;95872.28;5030559;28;20182;-66
2021/08/06 02:47:07;;;;;;;1.00;1.00;;;;;;;17.11;77.67;95881.41;5031227;28;20236;-67
2021/08/06 02:49:33;;;;;;;1.20;1.20;;;;;;;17.06;77.63;95865.59;5031472;28;20186;-66
2021/08/06 02:52:00;;;;;;;1.77;1.00;;;;;;;17.14;77.57;95872.09;5031269;28;20195;-65
2021/08/06 02:54:25;;;;;;;1.07;1.07;;;;;;;17.05;77.92;95872.00;5029521;28;20183;-65
2021/08/06 02:56:51;;;;;;;1.30;1.30;;;;;;;17.17;77.17;95867.00;5031341;28;20186;-65
2021/08/06 02:59:16;;;;;;;1.33;1.00;;;;;;;17.11;77.59;95870.81;5030036;28;20269;-66
2021/08/06 03:01:41;;;;;;;1.03;1.00;;;;;;;17.21;77.02;95862.72;5029661;28;20187;-66
2021/08/06 03:04:07;;;;;;;1.30;1.20;;;;;;;17.28;76.49;95863.09;5030059;28;20232;-68
2021/08/06 03:06:32;;;;;;;1.00;1.00;;;;;;;17.16;76.96;95864.66;5031094;28;20186;-66
2021/08/06 03:08:58;;;;;;;2.00;1.10;;;;;;;17.35;75.96;95868.03;5030494;28;20639;-67
2021/08/06 03:11:23;;;;;;;0.97;0.97;;;;;;;17.37;76.18;95855.28;5029025;28;20206;-65
2021/08/06 03:13:49;;;;;;;0.83;0.83;;;;;;;17.23;76.71;95854.47;5030787;28;20193;-66
2021/08/06 03:16:14;;;;;;;1.23;1.13;;;;;;;17.16;77.13;95852.22;5033023;28;20178;-69
2021/08/06 03:18:40;;;;;;;0.90;0.90;;;;;;;17.23;76.59;95852.59;5033185;28;20265;-67
2021/08/06 03:21:05;;;;;;;1.83;1.20;;;;;;;17.43;75.74;95854.13;5032710;28;20198;-69
2021/08/06 03:23:31;;;;;;;1.23;1.17;;;;;;;17.29;75.85;95848.00;5034437;28;20240;-65
2021/08/06 03:25:56;;;;;;;1.20;1.10;;;;;;;17.25;76.39;95844.38;5034205;28;20262;-66
2021/08/06 03:28:21;;;;;;;1.40;1.30;;;;;;;17.27;76.37;95844.88;5033560;28;20179;-66
2021/08/06 03:30:48;;;;;;;1.13;1.03;;;;;;;17.31;76.03;95841.34;5034740;28;20206;-66
2021/08/06 03:33:13;;;;;;;1.20;1.10;;;;;;;17.39;75.73;95850.47;5034011;28;20182;-67
2021/08/06 03:35:39;;;;;;;1.27;0.90;;;;;;;17.45;75.61;95846.66;5034542;28;20252;-67
2021/08/06 03:38:16;;;;;;;1.00;1.00;;;;;;;17.56;74.92;95850.69;5034592;28;20531;-69
2021/08/06 03:40:41;;;;;;;1.30;1.20;;;;;;;17.48;75.38;95856.69;5034313;28;20230;-67
2021/08/06 03:43:08;;;;;;;1.00;1.00;;;;;;;17.44;75.56;95856.47;5033864;28;20211;-69
2021/08/06 03:45:33;;;;;;;0.90;0.90;;;;;;;17.31;76.32;95854.59;5033958;28;20190;-67
2021/08/06 03:47:59;;;;;;;1.20;1.10;;;;;;;17.34;76.13;95856.66;5032524;28;20687;-67
2021/08/06 03:50:24;;;;;;;2.50;1.10;;;;;;;17.39;75.75;95855.75;5033353;28;20175;-67
2021/08/06 03:52:50;;;;;;;1.10;1.10;;;;;;;17.42;75.56;95855.19;5034129;28;20185;-66
2021/08/06 03:55:15;;;;;;;1.00;1.00;;;;;;;17.55;74.71;95854.44;5032144;28;20193;-66
2021/08/06 03:58:07;;;;;;;1.53;1.20;;;;;;;17.50;75.25;95851.09;5033060;28;20285;-67
2021/08/06 04:00:40;;;;;;;0.90;0.90;;;;;;;17.47;75.33;95844.50;5030522;28;20643;-66
2021/08/06 04:03:07;;;;;;;1.10;1.10;;;;;;;17.30;75.98;95846.94;5034161;28;20211;-70
2021/08/06 04:05:33;;;;;;;1.33;1.23;;;;;;;17.27;76.40;95840.38;5033790;28;20628;-66
2021/08/06 04:08:04;;;;;;;1.43;1.30;;;;;;;17.19;76.37;95838.38;5032808;28;20321;-66
2021/08/06 04:10:30;;;;;;;2.30;1.17;;;;;;;17.45;75.53;95828.88;5031352;28;20798;-66
2021/08/06 04:12:55;;;;;;;1.10;1.10;;;;;;;17.49;75.21;95831.75;5034131;28;20198;-66
2021/08/06 04:15:21;;;;;;;1.60;1.30;;;;;;;17.34;75.98;95843.41;5033174;28;20183;-67
2021/08/06 04:17:46;;;;;;;1.10;1.10;;;;;;;17.38;75.59;95849.72;5034049;28;20599;-67
2021/08/06 04:20:12;;;;;;;1.90;1.00;;;;;;;17.41;75.39;95843.03;5033403;28;20191;-68
2021/08/06 04:22:38;;;;;;;1.30;1.20;;;;;;;17.26;76.17;95838.00;5034365;28;20195;-67
2021/08/06 04:25:04;;;;;;;1.33;1.30;;;;;;;17.23;77.00;95839.34;5034205;28;20539;-67
2021/08/06 04:27:29;;;;;;;1.10;1.10;;;;;;;17.16;77.21;95833.69;5030371;28;20187;-67
2021/08/06 04:29:55;;;;;;;1.17;1.17;;;;;;;17.09;78.02;95833.25;5033923;28;20193;-67
2021/08/06 04:32:21;;;;;;;1.30;1.23;;;;;;;17.09;79.02;95840.41;5032810;28;20244;-66
2021/08/06 04:34:46;;;;;;;1.10;1.10;;;;;;;17.14;79.09;95848.28;5033825;28;20186;-66
2021/08/06 04:37:12;;;;;;;2.10;1.30;;;;;;;17.03;79.99;95859.03;5031422;28;20269;-67
2021/08/06 04:39:38;;;;;;;4.90;1.30;;;;;;;17.12;80.61;95843.25;5033556;28;20580;-66
2021/08/06 04:42:03;;;;;;;1.43;1.27;;;;;;;16.96;81.84;95849.88;5033873;28;20222;-66
2021/08/06 04:44:31;;;;;;;1.60;1.43;;;;;;;17.06;82.48;95847.06;5032735;28;20230;-67
2021/08/06 04:46:56;;;;;;;1.27;1.20;;;;;;;16.94;83.43;95854.69;5033070;28;20262;-66
2021/08/06 04:49:21;;;;;;;1.10;1.10;;;;;;;16.89;83.87;95852.91;5030885;28;20186;-67
2021/08/06 04:51:47;;;;;;;1.43;1.13;;;;;;;17.00;83.18;95858.81;5031162;28;20195;-67
2021/08/06 04:54:12;;;;;;;1.40;1.40;;;;;;;16.95;83.43;95859.69;5031644;28;20190;-67
2021/08/06 04:56:39;;;;;;;1.30;1.27;;;;;;;16.89;83.95;95857.41;5031739;28;20647;-67
2021/08/06 04:59:04;;;;;;;1.30;1.20;;;;;;;16.92;83.70;95856.84;5032540;28;20187;-67
2021/08/06 05:01:31;;;;;;;4.83;1.40;;;;;;;17.02;82.88;95862.75;5032090;28;20259;-68
2021/08/06 05:03:57;;;;;;;1.20;1.20;;;;;;;17.05;83.17;95869.34;5023633;28;20183;-67
2021/08/06 05:06:22;;;;;;;2.40;1.43;;;;;;;16.95;83.50;95870.28;5032050;28;20195;-67
2021/08/06 05:08:49;;;;;;;1.23;1.17;;;;;;;16.81;85.63;95874.75;5030271;28;20278;-68
2021/08/06 05:11:17;;;;;;;1.27;1.27;;;;;;;16.77;86.84;95876.41;5031908;28;20262;-68
2021/08/06 05:13:43;;;;;;;1.50;1.50;;;;;;;16.54;89.02;95875.38;5032444;28;20194;-68
2021/08/06 05:16:08;;;;;;;1.67;1.47;;;;;;;16.45;90.06;95886.88;5032291;28;20247;-69
2021/08/06 05:18:35;;;;;;;1.77;1.67;;;;;;;16.02;92.87;95889.53;5032789;28;20190;-67
2021/08/06 05:21:00;;;;;;;2.37;1.83;;;;;;;16.03;93.14;95885.81;5032924;28;20186;-64
2021/08/06 05:23:25;;;;;;;1.70;1.60;;;;;;;16.02;93.59;95891.38;5031918;28;20413;-67
2021/08/06 05:25:51;;;;;;;1.83;1.67;;;;;;;15.91;94.52;95892.56;5031197;28;20183;-66
2021/08/06 05:28:16;;;;;;;3.00;1.60;;;;;;;15.92;94.54;95897.59;5032324;28;20218;-66
2021/08/06 05:30:42;;;;;;;2.03;1.87;;;;;;;15.84;96.74;95898.19;5032459;28;20229;-66
2021/08/06 05:33:07;;;;;;;2.43;1.63;;;;;;;15.77;98.42;95892.47;5032407;28;20193;-69
2021/08/06 05:35:32;;;;;;;2.20;2.00;;;;;;;15.65;99.32;95892.06;5031765;28;20182;-66
2021/08/06 05:37:58;;;;;;;2.07;1.80;;;;;;;15.78;99.23;95889.53;5031230;28;20186;-65
2021/08/06 05:40:23;;;;;;;2.03;1.93;;;;;;;15.71;99.43;95880.38;5030017;28;20371;-65
2021/08/06 05:42:49;;;;;;;2.10;1.90;;;;;;;15.89;99.51;95884.13;5032588;28;20179;-65
2021/08/06 05:45:14;;;;;;;2.20;2.00;;;;;;;15.99;98.90;95876.09;5031453;28;20194;-65
2021/08/06 05:47:45;;;;;;;1.90;1.80;;;;;;;16.07;99.01;95872.81;5032085;28;20243;-65
2021/08/06 05:50:11;;;;;;;3.50;1.90;;;;;;;16.33;97.59;95862.72;5031223;28;20652;-69
2021/08/06 05:52:37;;;;;;;3.33;2.03;;;;;;;16.34;97.33;95865.06;5031849;28;20217;-66
2021/08/06 05:55:02;;;;;;;1.83;1.73;;;;;;;16.28;97.65;95865.41;5031917;28;20186;-66
2021/08/06 05:57:28;;;;;;;1.80;1.70;;;;;;;16.35;97.38;95866.63;5030775;28;20186;-66
2021/08/06 05:59:53;;;;;;;1.93;1.70;;;;;;;16.30;97.73;95879.13;5031515;28;20187;-66
2021/08/06 06:02:18;;;;;;;3.67;2.03;;;;;;;16.44;96.85;95880.03;5031021;28;20244;-66
2021/08/06 06:04:44;;;;;;;2.93;1.70;;;;;;;16.53;96.65;95873.78;5031786;28;20187;-66
2021/08/06 06:07:09;;;;;;;7.23;1.80;;;;;;;16.74;95.33;95866.38;5031257;28;20199;-68
2021/08/06 06:09:34;;;;;;;1.80;1.67;;;;;;;16.80;95.48;95867.09;5029778;28;20194;-66
2021/08/06 06:12:00;;;;;;;1.77;1.67;;;;;;;16.82;94.67;95875.53;5031700;28;20682;-66
2021/08/06 06:14:25;;;;;;;3.53;1.57;;;;;;;16.83;94.96;95871.81;5029310;28;20212;-67
2021/08/06 06:16:50;;;;;;;1.70;1.60;;;;;;;16.92;94.05;95884.09;5031316;28;20198;-66
2021/08/06 06:19:16;;;;;;;1.90;1.60;;;;;;;17.01;93.59;95885.00;5030518;28;20183;-67
2021/08/06 06:21:42;;;;;;;2.23;1.70;;;;;;;16.97;93.53;95889.31;5030301;28;20644;-66
2021/08/06 06:24:07;;;;;;;2.07;1.70;;;;;;;17.09;93.14;95901.31;5030594;28;20174;-67
2021/08/06 06:26:32;;;;;;;1.70;1.60;;;;;;;17.19;92.53;95898.50;5029140;28;20213;-67
2021/08/06 06:28:58;;;;;;;1.70;1.60;;;;;;;17.36;91.45;95896.88;5030956;28;20187;-67
2021/08/06 06:31:23;;;;;;;1.90;1.80;;;;;;;17.41;91.43;95896.00;5029158;28;20241;-66
2021/08/06 06:33:49;;;;;;;1.50;1.40;;;;;;;17.38;91.00;95896.59;5030109;28;20179;-66
2021/08/06 06:36:14;;;;;;;4.50;1.77;;;;;;;17.53;90.70;95896.31;5030466;28;20213;-66
2021/08/06 06:38:39;;;;;;;1.50;1.20;;;;;;;17.63;89.32;95896.16;5029946;28;20182;-65
2021/08/06 06:41:05;;;;;;;2.07;1.27;;;;;;;17.91;88.99;95896.19;5030266;28;20186;-66
2021/08/06 06:43:30;;;;;;;1.10;1.10;;;;;;;18.47;86.52;95893.97;5030288;28;20312;-66
2021/08/06 06:45:56;;;;;;;1.40;1.30;;;;;;;18.57;84.55;95891.13;5031158;28;20194;-64
2021/08/06 06:48:24;;;;;;;1.90;1.57;;;;;;;18.44;86.11;95891.16;5030682;28;20205;-65
2021/08/06 06:50:50;;;;;;;1.40;1.30;;;;;;;18.53;85.53;95898.09;5030414;28;20293;-65
2021/08/06 06:53:15;;;;;;;2.17;1.67;;;;;;;18.64;84.80;95894.16;5030291;28;20196;-65
2021/08/06 06:55:41;;;;;;;1.17;1.13;;;;;;;18.53;85.40;95892.00;5030183;28;20187;-64
2021/08/06 06:58:07;;;;;;;1.42;1.33;;;;;;;18.69;84.58;95894.06;5030957;28;20274;-64
2021/08/06 07:00:33;;;;;;;1.40;1.30;;;;;;;18.78;85.48;95899.44;5029984;28;20262;-65
2021/08/06 07:03:00;;;;;;;1.13;1.02;;;;;;;19.03;83.17;95896.19;5030388;28;20236;-65
2021/08/06 07:05:26;;;;;;;1.30;1.20;;;;;;;19.06;83.32;95900.91;5030321;28;20269;-64
2021/08/06 07:07:53;;;;;;;1.17;1.17;;;;;;;19.27;81.64;95901.22;5028299;28;20519;-67
2021/08/06 07:10:18;;;;;;;1.23;1.13;;;;;;;19.65;81.25;95908.78;5030027;28;20202;-65
2021/08/06 07:12:44;;;;;;;1.02;1.02;;;;;;;20.11;78.33;95906.50;5031413;28;20190;-68
2021/08/06 07:15:11;;;;;;;1.00;1.00;;;;;;;20.04;77.10;95902.72;5030344;28;20199;-70
2021/08/06 07:17:38;;;;;;;0.93;0.93;;;;;;;20.16;76.37;95911.69;5030642;28;20194;-65
2021/08/06 07:20:05;;;;;;;3.33;1.23;;;;;;;20.06;76.72;95921.81;5030456;28;20186;-65
2021/08/06 07:22:31;;;;;;;1.27;1.15;;;;;;;19.70;78.00;95922.75;5030422;28;20269;-64
2021/08/06 07:24:56;;;;;;;0.90;0.90;;;;;;;19.74;77.90;95913.06;5030835;28;20655;-65
2021/08/06 07:27:22;;;;;;;2.30;1.10;;;;;;;19.89;77.85;95914.56;5030200;28;20269;-65
2021/08/06 07:29:47;;;;;;;0.93;0.93;;;;;;;20.24;77.07;95916.22;5030635;28;20644;-65
2021/08/06 07:32:14;;;;;;;2.03;0.90;;;;;;;20.37;76.01;95919.91;5030017;28;20217;-69
2021/08/06 07:34:39;;;;;;;1.50;1.02;;;;;;;20.36;75.46;95923.66;5030701;28;20178;-65
2021/08/06 07:37:05;;;;;;;1.30;1.20;;;;;;;20.20;75.58;95928.59;5031042;28;20551;-65
2021/08/06 07:39:30;;;;;;;1.70;1.10;;;;;;;20.07;75.92;95928.69;5029662;28;20807;-64
2021/08/06 07:41:56;;;;;;;1.00;1.00;;;;;;;19.85;76.26;95942.84;5029928;28;20194;-64
2021/08/06 07:44:21;;;;;;;1.30;1.20;;;;;;;20.07;75.90;95936.66;5029981;28;20191;-66
2021/08/06 07:46:46;;;;;;;1.05;1.05;;;;;;;20.22;75.60;95931.72;5029692;28;20245;-65
2021/08/06 07:49:12;;;;;;;1.48;1.20;;;;;;;20.36;74.86;95931.63;5030123;28;20187;-71
2021/08/06 07:51:38;;;;;;;2.35;1.10;;;;;;;20.31;74.27;95929.09;5030124;28;20190;-66
2021/08/06 07:54:05;;;;;;;1.77;1.15;;;;;;;20.45;74.28;95929.75;5030084;28;20699;-68
2021/08/06 07:56:31;;;;;;;2.25;1.08;;;;;;;20.58;75.01;95941.38;5028833;28;20760;-66
2021/08/06 07:58:56;;;;;;;1.20;1.15;;;;;;;20.65;75.00;95939.06;5030931;28;20190;-66
2021/08/06 08:01:22;;;;;;;1.58;1.20;;;;;;;20.27;76.65;95944.13;5029997;28;20222;-64
2021/08/06 08:03:47;;;;;;;1.42;1.33;;;;;;;19.87;79.58;95952.09;5033378;28;20186;-65
2021/08/06 08:06:13;;;;;;;3.40;1.40;;;;;;;19.27;84.00;95978.28;5033483;28;20244;-71
2021/08/06 08:08:39;;;;;;;3.20;1.35;;;;;;;18.07;92.32;95969.84;5027002;28;20202;-66
2021/08/06 08:11:04;;;;;;;1.50;0.90;;;;;;;17.74;95.16;95990.34;5033875;28;20214;-67
2021/08/06 08:13:30;;;;;;;0.65;0.65;;;;;;;17.27;95.19;95990.56;5033041;28;20189;-66
2021/08/06 08:15:55;;;;;;;1.15;0.75;;;;;;;16.78;97.02;95996.25;5033669;28;20261;-66
2021/08/06 08:18:21;;;;;;;1.57;0.80;;;;;;;16.51;99.45;95971.16;5033437;28;20191;-67
2021/08/06 08:20:47;;;;;;;1.10;0.70;;;;;;;16.58;99.62;95973.47;5033899;28;20210;-64
2021/08/06 08:23:14;;;;;;;0.97;0.73;;;;;;;16.76;98.99;95978.03;5033116;28;20236;-72
2021/08/06 08:25:40;;;;;;;0.93;0.60;;;;;;;16.98;97.49;95978.25;5033472;28;20191;-67
2021/08/06 08:28:06;;;;;;;0.70;0.70;;;;;;;16.78;99.25;95983.03;5033741;28;20197;-65
2021/08/06 08:30:31;;;;;;;1.43;0.80;;;;;;;16.98;98.42;95994.13;5032583;28;20174;-65
2021/08/06 08:32:57;;;;;;;1.00;0.90;;;;;;;17.18;97.41;95990.41;5033819;28;20183;-66
2021/08/06 08:35:22;;;;;;;1.70;0.90;;;;;;;17.31;96.47;95989.69;5032590;28;20178;-66
2021/08/06 08:37:48;;;;;;;0.60;0.60;;;;;;;17.71;96.26;95988.28;5033215;28;20226;-66
2021/08/06 08:40:13;;;;;;;1.08;0.93;;;;;;;17.96;91.79;95989.69;5032888;28;20223;-67
2021/08/06 08:42:39;;;;;;;1.02;0.63;;;;;;;18.39;89.76;95984.88;5032906;28;20236;-65
2021/08/06 08:45:06;;;;;;;0.80;0.80;;;;;;;18.36;89.33;95985.50;5033214;28;20183;-65
2021/08/06 08:47:34;;;;;;;0.80;0.80;;;;;;;18.57;88.79;95989.34;5032385;28;20192;-67
2021/08/06 08:50:02;;;;;;;1.60;1.50;;;;;;;19.05;87.36;95991.53;5033198;28;20194;-66
2021/08/06 08:52:28;;;;;;;0.80;0.80;;;;;;;19.52;84.67;95998.94;5031287;28;20293;-66
2021/08/06 08:54:53;;;;;;;0.98;0.70;;;;;;;19.59;83.31;96003.06;5032356;28;20265;-69
2021/08/06 08:57:21;;;;;;;0.63;0.63;;;;;;;19.83;81.99;95999.00;5032449;28;20189;-67
2021/08/06 08:59:46;;;;;;;0.73;0.73;;;;;;;19.94;81.53;96004.84;5031825;28;20175;-68
2021/08/06 09:02:12;;;;;;;0.65;0.65;;;;;;;20.48;80.71;96000.25;5014954;28;20550;-70
2021/08/06 09:04:37;;;;;;;0.70;0.70;;;;;;;20.91;79.62;96014.47;5032435;28;20573;-67
2021/08/06 09:07:03;;;;;;;0.60;0.60;;;;;;;20.79;78.55;96005.53;5030516;28;20205;-67
2021/08/06 09:09:29;;;;;;;1.73;0.77;;;;;;;21.08;78.26;96008.38;5032452;28;20186;-67
2021/08/06 09:12:06;;;;;;;1.20;0.50;;;;;;;20.95;77.22;96001.31;5032798;28;20206;-66
2021/08/06 09:14:33;;;;;;;0.93;0.88;;;;;;;21.13;76.26;95994.88;5024135;28;20706;-68
2021/08/06 09:17:10;;;;;;;2.10;0.73;;;;;;;21.04;77.00;95994.91;5033157;28;20190;-68
2021/08/06 09:20:02;;;;;;;7.28;3.25;;;;;;;21.17;76.15;96000.44;5032497;28;20175;-69
2021/08/06 09:22:27;;;;;;;6.30;3.38;;;;;;;21.37;74.39;95991.78;5031925;28;20195;-69
2021/08/06 09:25:13;;;;;;;1.60;1.48;;;;;;;21.69;72.38;95987.84;5032520;28;20552;-69
2021/08/06 09:27:49;;;;;;;1.00;1.00;;;;;;;21.52;70.46;95996.63;5015512;28;20194;-68
2021/08/06 09:30:24;;;;;;;0.90;0.90;;;;;;;21.28;71.98;95997.13;5031644;28;20210;-71
2021/08/06 09:32:54;;;;;;;1.15;1.00;;;;;;;20.91;72.66;95998.47;5032227;28;20192;-66
2021/08/06 09:35:24;;;;;;;2.30;1.10;;;;;;;20.94;74.01;96007.75;5030319;28;20244;-67
2021/08/06 09:37:49;;;;;;;1.55;1.10;;;;;;;20.65;70.97;95989.66;5031729;28;20554;-67
2021/08/06 09:40:18;;;;;;;1.30;1.00;;;;;;;20.37;72.25;95997.09;5031344;28;20235;-70
2021/08/06 09:42:52;;;;;;;1.00;1.00;;;;;;;20.03;73.95;95995.03;5032467;28;20542;-66
2021/08/06 09:45:21;;;;;;;2.47;1.10;;;;;;;20.14;72.64;95996.34;5030347;28;20190;-67
2021/08/06 09:47:54;;;;;;;1.30;0.90;;;;;;;20.00;72.51;95993.00;5032103;28;20535;-67
2021/08/06 09:50:21;;;;;;;0.93;0.93;;;;;;;20.26;71.17;96007.19;5031610;28;20167;-68
2021/08/06 09:52:51;;;;;;;0.82;0.82;;;;;;;20.40;70.04;95993.00;5014288;28;20222;-69
2021/08/06 09:55:20;;;;;;;1.10;1.10;;;;;;;20.86;68.31;95987.97;5029691;28;20182;-69
2021/08/06 09:57:46;;;;;;;1.02;1.02;;;;;;;21.33;67.21;95985.53;5032194;28;20265;-66
2021/08/06 10:00:16;;;;;;;2.08;1.10;;;;;;;21.58;66.13;95988.16;5031567;28;20183;-67
2021/08/06 10:02:42;;;;;;;0.95;0.95;;;;;;;21.16;67.37;95988.97;5032132;28;20191;-67
2021/08/06 10:05:09;;;;;;;1.40;1.00;;;;;;;20.65;66.85;95994.97;5031682;28;20632;-67
2021/08/06 10:07:38;;;;;;;1.25;1.00;;;;;;;20.69;66.87;95995.91;5029017;28;20240;-67
2021/08/06 10:10:07;;;;;;;1.38;1.00;;;;;;;20.57;66.83;95996.53;5032551;28;20189;-65
2021/08/06 10:12:33;;;;;;;1.35;0.75;;;;;;;20.69;66.69;95996.72;5030819;28;20211;-66
2021/08/06 10:14:59;;;;;;;0.82;0.82;;;;;;;20.76;64.36;95988.28;5030224;28;20183;-67
2021/08/06 10:17:24;;;;;;;1.25;1.15;;;;;;;20.93;62.05;95998.97;5030651;28;20195;-67
2021/08/06 10:19:51;;;;;;;1.30;1.30;;;;;;;21.21;61.33;96001.34;5031171;28;20240;-67
2021/08/06 10:22:17;;;;;;;1.98;0.90;;;;;;;21.33;61.09;95999.66;5031142;28;20629;-67
2021/08/06 10:24:46;;;;;;;2.03;0.80;;;;;;;21.58;59.86;96006.84;5030829;28;20191;-67
2021/08/06 10:27:14;;;;;;;0.77;0.60;;;;;;;22.04;57.57;96004.59;5031755;28;20197;-67
2021/08/06 10:30:00;;;;;;;0.80;0.80;;;;;;;22.30;56.67;96008.72;5031062;28;20242;-67
2021/08/06 10:32:28;;;;;;;0.55;0.55;;;;;;;22.62;55.86;96002.00;5030764;28;20203;-67
2021/08/06 10:35:02;;;;;;;1.00;0.90;;;;;;;23.07;55.78;96004.88;5031716;28;20191;-67
2021/08/06 10:37:50;;;;;;;0.70;0.70;;;;;;;22.98;54.20;96017.53;5015825;28;20540;-68
2021/08/06 10:43:11;;;;;;;0.68;0.68;;;;;;;23.34;53.28;96013.53;5031290;28;20199;-67
2021/08/06 10:45:48;;;;;;;0.90;0.80;;;;;;;23.67;53.74;96019.72;5025043;28;20206;-67
2021/08/06 10:48:29;;;;;;;0.82;0.70;;;;;;;23.32;53.13;96013.84;5028278;28;20190;-67
2021/08/06 10:51:16;;;;;;;0.63;0.60;;;;;;;23.10;53.32;96011.47;5024880;28;20213;-66
2021/08/06 10:53:43;;;;;;;1.30;0.65;;;;;;;23.48;52.90;96014.06;5028768;28;20222;-68
2021/08/06 10:56:27;;;;;;;1.42;0.73;;;;;;;22.86;53.92;96011.31;5029623;28;20195;-67
2021/08/06 10:58:57;;;;;;;0.60;0.60;;;;;;;22.91;54.82;96008.44;5029034;28;20205;-67
2021/08/06 11:01:28;;;;;;;1.55;0.70;;;;;;;23.35;53.80;96015.84;5029338;28;20281;-68
2021/08/06 11:03:57;;;;;;;0.80;0.80;;;;;;;22.89;53.71;96011.47;5029879;28;20190;-67
2021/08/06 11:06:39;;;;;;;1.95;0.70;;;;;;;22.91;53.25;96011.13;5028039;28;20198;-67
2021/08/06 11:09:25;;;;;;;0.60;0.60;;;;;;;23.16;53.77;96002.16;5030085;28;20185;-67
2021/08/06 11:11:52;;;;;;;0.60;0.60;;;;;;;23.25;53.48;96012.78;5025997;28;20214;-67
2021/08/06 11:14:30;;;;;;;0.70;0.70;;;;;;;22.32;54.15;96009.19;5029195;28;20670;-70
2021/08/06 11:17:16;;;;;;;1.23;0.80;;;;;;;22.37;54.61;96021.59;5030432;28;20588;-68
2021/08/06 11:20:15;;;;;;;0.60;0.60;;;;;;;22.31;55.24;96020.97;5029451;28;20804;-67
2021/08/06 11:22:46;;;;;;;0.95;0.82;;;;;;;21.83;55.56;96031.91;5019404;28;20202;-67
2021/08/06 11:25:23;;;;;;;2.72;0.60;;;;;;;22.13;55.14;96022.13;5030479;28;20237;-68
2021/08/06 11:28:00;;;;;;;1.52;0.70;;;;;;;22.78;53.94;96012.94;5030719;28;20194;-68
2021/08/06 11:30:35;;;;;;;1.33;0.70;;;;;;;23.36;51.96;96012.06;5029574;28;20221;-68
2021/08/06 11:33:03;;;;;;;0.90;0.65;;;;;;;23.18;51.82;96007.97;5029569;28;20190;-68
2021/08/06 11:35:35;;;;;;;0.70;0.70;;;;;;;22.56;52.62;96013.19;5027572;28;20550;-68
2021/08/06 11:38:05;;;;;;;0.63;0.63;;;;;;;22.63;53.17;96005.44;5033937;28;20179;-68
2021/08/06 11:40:32;;;;;;;0.73;0.73;;;;;;;22.62;53.22;96002.00;5031723;28;20574;-68